createdAt,value
2023-01-19T00:00:34.512Z,99797.84
2023-01-19T00:05:36.792Z,99804.63
2023-01-19T00:10:40.306Z,99811.44
2023-01-19T00:15:42.485Z,99813.69
2023-01-19T00:20:45.441Z,99828.06
2023-01-19T00:25:48.736Z,99835.22
2023-01-19T00:30:50.847Z,99832.09
2023-01-19T00:35:53.804Z,99834.28
2023-01-19T00:40:57.237Z,99839.34
2023-01-19T00:45:59.212Z,99846.50
2023-01-19T00:51:01.433Z,99838.78
2023-01-19T00:56:05.568Z,99845.47
2023-01-19T01:01:07.652Z,99851.53
2023-01-19T01:06:09.866Z,99850.97
2023-01-19T01:11:13.370Z,99856.03
2023-01-19T01:16:16.459Z,99840.28
2023-01-19T01:21:18.571Z,99847.34
2023-01-19T01:26:22.207Z,99850.31
2023-01-19T01:31:24.608Z,99858.34
2023-01-19T01:36:26.742Z,99870.81
2023-01-19T01:41:30.506Z,99875.56
2023-01-19T01:46:32.789Z,99869.69
2023-01-19T01:51:40.160Z,99854.69
2023-01-19T01:56:45.642Z,99854.25
2023-01-19T02:01:47.856Z,99864.94
2023-01-19T02:06:50.614Z,99870.13
2023-01-19T02:11:55.108Z,99874.28
2023-01-19T02:16:57.523Z,99865.16
2023-01-19T02:22:05.701Z,99861.81
2023-01-19T02:27:10.125Z,99860.28
2023-01-19T02:32:12.098Z,99857.81
2023-01-19T02:37:17.446Z,99858.19
2023-01-19T02:42:25.897Z,99868.13
2023-01-19T02:47:37.727Z,99856.94
2023-01-19T02:52:39.895Z,99861.88
2023-01-19T02:57:59.239Z,99854.50
2023-01-19T03:03:17.208Z,99851.91
2023-01-19T03:08:30.958Z,99851.44
2023-01-19T03:13:44.742Z,99844.88
2023-01-19T03:18:52.390Z,99859.53
2023-01-19T03:23:58.780Z,99861.53
2023-01-19T03:29:03.666Z,99861.41
2023-01-19T03:34:08.400Z,99865.63
2023-01-19T03:39:13.230Z,99858.97
2023-01-19T03:44:17.433Z,99858.56
2023-01-19T03:49:19.806Z,99853.63
2023-01-19T03:54:21.939Z,99864.19
2023-01-19T03:59:25.327Z,99863.53
2023-01-19T04:04:27.468Z,99866.06
2023-01-19T04:09:29.686Z,99863.41
2023-01-19T04:14:33.360Z,99874.25
2023-01-19T04:19:35.608Z,99873.41
2023-01-19T04:24:37.697Z,99862.75
2023-01-19T04:29:41.162Z,99871.22
2023-01-19T04:34:43.376Z,99880.31
2023-01-19T04:39:45.909Z,99884.44
2023-01-19T04:44:49.464Z,99878.41
2023-01-19T04:49:51.632Z,99889.63
2023-01-19T04:54:53.516Z,99883.97
2023-01-19T04:59:57.358Z,99871.44
2023-01-19T05:04:59.580Z,99886.63
2023-01-19T05:10:01.591Z,99888.03
2023-01-19T05:15:06.013Z,99885.75
2023-01-19T05:20:10.539Z,99877.78
2023-01-19T05:25:12.605Z,99883.16
2023-01-19T05:30:16.924Z,99879.47
2023-01-19T05:35:27.803Z,99884.63
2023-01-19T05:40:34.209Z,99893.34
2023-01-19T05:45:37.687Z,99894.91
2023-01-19T05:50:39.822Z,99893.25
2023-01-19T05:55:42.144Z,99902.84
2023-01-19T06:00:45.805Z,99908.34
2023-01-19T06:05:47.886Z,99916.16
2023-01-19T06:10:50.164Z,99919.75
2023-01-19T06:15:58.126Z,99929.25
2023-01-19T06:21:03.761Z,99931.03
2023-01-19T06:26:06.088Z,99937.66
2023-01-19T06:31:09.728Z,99929.88
2023-01-19T06:36:11.632Z,99928.91
2023-01-19T06:41:13.647Z,99936.09
2023-01-19T06:46:17.323Z,99938.06
2023-01-19T06:51:19.477Z,99925.72
2023-01-19T06:56:21.655Z,99939.41
2023-01-19T07:01:25.112Z,99943.59
2023-01-19T07:06:27.392Z,99951.25
2023-01-19T07:11:33.054Z,99947.44
2023-01-19T07:16:36.498Z,99956.44
2023-01-19T07:21:38.419Z,99953.19
2023-01-19T07:26:40.151Z,99956.78
2023-01-19T07:31:43.345Z,99961.31
2023-01-19T07:36:45.664Z,99960.06
2023-01-19T07:41:48.458Z,99974.44
2023-01-19T07:46:51.554Z,99979.84
2023-01-19T07:51:53.283Z,99976.19
2023-01-19T07:56:55.215Z,99978.84
2023-01-19T08:01:58.674Z,99982.31
2023-01-19T08:07:00.525Z,99990.06
2023-01-19T08:12:02.888Z,99999.91
2023-01-19T08:17:06.885Z,100002.03
2023-01-19T08:22:09.842Z,100013.91
2023-01-19T08:27:15.096Z,100007.56
2023-01-19T08:32:18.335Z,100008.66
2023-01-19T08:37:20.578Z,100016.75
2023-01-19T08:42:22.603Z,100022.22
2023-01-19T08:47:26.119Z,100015.72
2023-01-19T08:52:27.887Z,100018.09
2023-01-19T08:57:29.971Z,100017.91
2023-01-19T09:02:33.237Z,100022.72
2023-01-19T09:07:35.771Z,100022.34
2023-01-19T09:12:38.321Z,100029.09
2023-01-19T09:17:42.070Z,100029.53
2023-01-19T09:22:44.616Z,100037.91
2023-01-19T09:27:46.771Z,100033.97
2023-01-19T09:32:50.096Z,100023.19
2023-01-19T09:37:51.870Z,100026.28
2023-01-19T09:42:57.169Z,100028.44
2023-01-19T09:48:04.482Z,100029.72
2023-01-19T09:53:16.712Z,100027.28
2023-01-19T09:58:18.872Z,100027.75
2023-01-19T10:03:24.222Z,100025.44
2023-01-19T10:08:35.017Z,100029.09
2023-01-19T10:13:44.115Z,100028.47
2023-01-19T10:18:49.410Z,100005.16
2023-01-19T10:23:56.115Z,100013.88
2023-01-19T10:29:02.040Z,100022.66
2023-01-19T10:34:05.236Z,100015.19
2023-01-19T10:39:12.092Z,100010.75
2023-01-19T10:44:24.141Z,100009.50
2023-01-19T10:49:29.465Z,100008.56
2023-01-19T10:54:34.064Z,99996.50
2023-01-19T10:59:38.323Z,99986.78
2023-01-19T11:04:41.733Z,99982.78
2023-01-19T11:09:43.936Z,99978.19
2023-01-19T11:14:46.984Z,99982.50
2023-01-19T11:19:59.477Z,99991.25
2023-01-19T11:25:04.798Z,99979.53
2023-01-19T11:30:17.478Z,99978.47
2023-01-19T11:35:35.145Z,99970.81
2023-01-19T11:40:37.104Z,99959.41
2023-01-19T11:45:40.150Z,99955.03
2023-01-19T11:50:45.075Z,99957.97
2023-01-19T11:55:52.688Z,99955.44
2023-01-19T12:00:58.696Z,99957.97
2023-01-19T12:06:09.219Z,99958.75
2023-01-19T12:11:16.283Z,99957.78
2023-01-19T12:16:21.039Z,99967.44
2023-01-19T12:21:24.251Z,99958.53
2023-01-19T12:26:31.047Z,99962.16
2023-01-19T12:31:33.616Z,99970.22
2023-01-19T12:36:38.307Z,99965.72
2023-01-19T12:41:41.589Z,99967.53
2023-01-19T12:46:45.484Z,99969.41
2023-01-19T12:51:51.246Z,99978.06
2023-01-19T12:56:59.793Z,99979.81
2023-01-19T13:02:41.275Z,99982.44
2023-01-19T13:08:22.522Z,99985.09
2023-01-19T13:13:26.967Z,99987.69
2023-01-19T13:18:31.617Z,99996.47
2023-01-19T13:23:53.361Z,99999.03
2023-01-19T13:28:58.766Z,99992.63
2023-01-19T13:34:02.695Z,100002.13
2023-01-19T13:39:12.558Z,100006.41
2023-01-19T13:44:21.311Z,100006.28
2023-01-19T13:49:29.625Z,100012.44
2023-01-19T13:54:33.203Z,100012.41
2023-01-19T13:59:35.677Z,100014.91
2023-01-19T14:04:37.422Z,100024.25
2023-01-19T14:09:41.016Z,100026.53
2023-01-19T14:14:44.294Z,100035.94
2023-01-19T14:19:50.451Z,100031.47
2023-01-19T14:24:53.603Z,100038.22
2023-01-19T14:30:19.227Z,100036.34
2023-01-19T14:35:24.775Z,100046.63
2023-01-19T14:40:29.235Z,100048.31
2023-01-19T14:45:34.869Z,100051.91
2023-01-19T14:50:39.802Z,100022.75
2023-01-19T14:55:47.641Z,100061.91
2023-01-19T15:00:50.935Z,100048.56
2023-01-19T15:05:55.801Z,100058.84
2023-01-19T15:11:03.727Z,100055.88
2023-01-19T15:16:06.451Z,100048.72
2023-01-19T15:21:11.925Z,100063.53
2023-01-19T15:26:16.993Z,100066.94
2023-01-19T15:31:21.349Z,100070.31
2023-01-19T15:36:26.225Z,100067.66
2023-01-19T15:41:29.515Z,100069.34
2023-01-19T15:46:31.484Z,100071.97
2023-01-19T15:51:33.229Z,100074.63
2023-01-19T15:56:36.439Z,100073.78
2023-01-19T16:01:39.928Z,100080.78
2023-01-19T16:06:42.091Z,100076.38
2023-01-19T16:11:46.087Z,100083.34
2023-01-19T16:16:48.251Z,100082.50
2023-01-19T16:21:50.311Z,100074.75
2023-01-19T16:26:53.844Z,100081.81
2023-01-19T16:31:55.888Z,100088.84
2023-01-19T16:36:57.766Z,100086.22
2023-01-19T16:42:00.891Z,100086.19
2023-01-19T16:47:03.101Z,100093.19
2023-01-19T16:52:04.951Z,100108.03
2023-01-19T16:57:09.102Z,100102.00
2023-01-19T17:02:11.410Z,100101.91
2023-01-19T17:07:13.584Z,100100.22
2023-01-19T17:12:17.142Z,100100.16
2023-01-19T17:17:18.916Z,100113.00
2023-01-19T17:22:28.929Z,100109.19
2023-01-19T17:27:35.469Z,100112.09
2023-01-19T17:32:38.150Z,100118.28
2023-01-19T17:37:40.285Z,100106.28
2023-01-19T17:42:43.382Z,100108.94
2023-01-19T17:47:48.248Z,100113.38
2023-01-19T17:52:50.328Z,100111.75
2023-01-19T17:57:53.890Z,100125.03
2023-01-19T18:02:55.824Z,100132.06
2023-01-19T18:07:59.858Z,100123.41
2023-01-19T18:13:03.037Z,100125.97
2023-01-19T18:18:05.257Z,100136.34
2023-01-19T18:23:07.651Z,100132.78
2023-01-19T18:28:11.074Z,100147.66
2023-01-19T18:33:13.019Z,100152.16
2023-01-19T18:38:15.633Z,100154.81
2023-01-19T18:43:19.224Z,100158.38
2023-01-19T18:48:21.386Z,100163.66
2023-01-19T18:53:23.885Z,100165.47
2023-01-19T18:58:27.197Z,100176.06
2023-01-19T19:03:30.053Z,100178.72
2023-01-19T19:08:33.360Z,100184.91
2023-01-19T19:13:36.484Z,100193.56
2023-01-19T19:18:39.632Z,100188.34
2023-01-19T19:23:41.357Z,100199.63
2023-01-19T19:28:44.897Z,100202.28
2023-01-19T19:33:48.613Z,100202.31
2023-01-19T19:38:51.110Z,100213.59
2023-01-19T19:43:55.609Z,100219.69
2023-01-19T19:48:58.238Z,100227.50
2023-01-19T19:54:01.685Z,100236.16
2023-01-19T19:59:05.089Z,100252.56
2023-01-19T20:04:08.923Z,100251.53
2023-01-19T20:09:12.544Z,100248.91
2023-01-19T20:14:16.613Z,100250.59
2023-01-19T20:19:18.837Z,100251.47
2023-01-19T20:24:21.308Z,100262.81
2023-01-19T20:29:24.685Z,100262.81
2023-01-19T20:34:32.830Z,100271.56
2023-01-19T20:39:35.336Z,100281.25
2023-01-19T20:44:38.617Z,100284.72
2023-01-19T20:49:41.527Z,100293.50
2023-01-19T20:54:43.591Z,100302.22
2023-01-19T20:59:47.088Z,100296.09
2023-01-19T21:04:49.294Z,100300.50
2023-01-19T21:09:51.377Z,100313.47
2023-01-19T21:14:54.825Z,100325.81
2023-01-19T21:19:56.917Z,100329.47
2023-01-19T21:24:59.217Z,100327.44
2023-01-19T21:30:02.780Z,100331.16
2023-01-19T21:35:06.183Z,100345.28
2023-01-19T21:40:09.402Z,100343.41
2023-01-19T21:45:13.928Z,100355.44
2023-01-19T21:50:16.475Z,100364.47
2023-01-19T21:55:18.614Z,100364.50
2023-01-19T22:00:22.248Z,100377.44
2023-01-19T22:05:24.368Z,100386.91
2023-01-19T22:10:27.169Z,100389.63
2023-01-19T22:15:30.890Z,100391.84
2023-01-19T22:20:33.234Z,100398.50
2023-01-19T22:25:35.041Z,100406.38
2023-01-19T22:30:38.575Z,100414.56
2023-01-19T22:35:40.597Z,100425.03
2023-01-19T22:40:42.484Z,100424.13
2023-01-19T22:45:46.279Z,100425.75
2023-01-19T22:50:48.761Z,100436.00
2023-01-19T22:55:50.792Z,100429.50
2023-01-19T23:00:54.323Z,100435.78
2023-01-19T23:05:56.117Z,100432.56
2023-01-19T23:10:58.655Z,100441.38
2023-01-19T23:16:02.515Z,100445.72
2023-01-19T23:21:07.903Z,100442.91
2023-01-19T23:26:12.350Z,100455.09
2023-01-19T23:31:17.940Z,100456.25
2023-01-19T23:36:21.070Z,100460.41
2023-01-19T23:41:24.230Z,100466.44
2023-01-19T23:46:27.907Z,100464.72
2023-01-19T23:51:31.461Z,100462.16
2023-01-19T23:56:35.025Z,100470.09
